Time;durP1;ratioP1;P1;durP2;ratioP2;P2;SDS_P1;SDS_P2;PMS_P1;PMS_P2;Temp;Humidity;BMP_temperature;BMP_pressure;BME280_temperature;BME280_humidity;BME280_pressure;Samples;Min_cycle;Max_cycle;Signal;HPM_P1;HPM_P2
2021/12/17 00:01:08;;;;;;;5.22;4.93;;;;;;;11.37;61.95;102788.56;6219829;23;20036;-74
2021/12/17 00:04:14;;;;;;;;;;;;;;;;;;;;;
2021/12/17 00:06:56;;;;;;;4.95;4.57;;;;;;;11.49;62.11;102803.31;6215308;23;20009;-74
2021/12/17 00:10:29;;;;;;;4.68;4.47;;;;;;;11.49;62.30;102802.44;6175074;23;20012;-74
2021/12/17 00:13:51;;;;;;;;;;;;;;;;;;;;;
2021/12/17 00:16:26;;;;;;;6.57;6.13;;;;;;;11.35;61.51;102794.25;6214284;23;20055;-74
2021/12/17 00:19:18;;;;;;;5.60;5.30;;;;;;;11.49;62.09;102807.91;6193572;23;20379;-73
2021/12/17 00:46:32;;;;;;;6.25;5.90;;;;;;;11.28;62.29;102795.31;6160364;23;20115;-77
2021/12/17 00:49:59;;;;;;;5.13;4.80;;;;;;;11.24;62.50;102789.41;6156194;23;20020;-80
2021/12/17 00:52:30;;;;;;;5.07;4.88;;;;;;;11.26;61.88;102786.50;6177263;23;19996;-78
2021/12/17 00:54:56;;;;;;;5.65;5.35;;;;;;;11.26;62.15;102787.31;6143213;23;20012;-77
2021/12/17 00:57:26;;;;;;;5.10;4.80;;;;;;;11.33;62.31;102804.59;6193356;23;20095;-75
2021/12/17 00:59:54;;;;;;;5.82;5.53;;;;;;;11.36;62.44;102797.84;6220433;23;20451;-76
2021/12/17 01:02:25;;;;;;;4.72;4.43;;;;;;;11.38;61.73;102795.72;6217408;23;20047;-75
2021/12/17 01:04:55;;;;;;;4.20;4.00;;;;;;;11.38;61.94;102787.50;6219564;23;20004;-75
2021/12/17 01:07:28;;;;;;;4.57;4.28;;;;;;;11.37;62.28;102784.97;6192253;23;20056;-78
2021/12/17 01:09:54;;;;;;;4.80;4.57;;;;;;;11.35;62.22;102780.56;6191003;23;20024;-78
2021/12/17 01:12:21;;;;;;;4.53;4.28;;;;;;;11.32;62.29;102775.50;6166346;23;20004;-77
2021/12/17 01:14:47;;;;;;;4.25;4.07;;;;;;;11.32;62.01;102780.97;6218864;23;20091;-77
2021/12/17 01:17:15;;;;;;;5.47;5.13;;;;;;;11.33;61.85;102782.69;6191626;23;20011;-78
2021/12/17 01:25:02;;;;;;;7.15;6.75;;;;;;;11.32;61.99;102774.69;6187415;23;20016;-75
2021/12/17 01:35:42;;;;;;;4.13;3.92;;;;;;;11.27;61.98;102782.69;6213201;23;20082;-75
2021/12/17 01:43:54;;;;;;;3.10;3.00;;;;;;;11.30;62.02;102783.09;6214215;23;20087;-75
2021/12/17 01:46:23;;;;;;;5.07;4.80;;;;;;;11.31;62.50;102782.03;6215199;23;20008;-74
2021/12/17 01:49:02;;;;;;;5.00;4.80;;;;;;;11.32;62.08;102785.63;6214637;23;20066;-74
2021/12/17 01:59:20;;;;;;;4.88;4.68;;;;;;;11.29;61.95;102769.63;6211033;23;20047;-75
2021/12/17 01:59:43;;;;;;;4.65;4.35;;;;;;;11.30;62.26;102776.75;6193684;23;20012;-75
2021/12/17 02:02:09;;;;;;;3.90;3.70;;;;;;;11.29;61.94;102773.19;6215288;23;20001;-76
2021/12/17 02:04:36;;;;;;;3.10;2.95;;;;;;;11.29;61.85;102770.47;6189277;23;20016;-74
2021/12/17 02:07:03;;;;;;;3.10;3.00;;;;;;;11.30;62.62;102776.75;6188374;23;20394;-75
2021/12/17 02:20:20;;;;;;;5.65;5.35;;;;;;;11.34;61.98;102783.50;6165881;23;20328;-74
2021/12/17 02:31:16;;;;;;;5.93;5.63;;;;;;;11.30;61.82;102776.75;6213426;23;20019;-75
2021/12/17 02:33:41;;;;;;;5.00;4.70;;;;;;;11.28;61.80;102773.41;6165550;23;20073;-76
2021/12/17 02:36:08;;;;;;;5.72;5.43;;;;;;;11.29;62.17;102775.94;6216973;23;20603;-75
2021/12/17 02:38:40;;;;;;;5.13;4.72;;;;;;;11.31;62.12;102778.47;6189193;23;20004;-75
2021/12/17 02:46:38;;;;;;;5.43;5.13;;;;;;;11.27;61.76;102772.59;6217563;23;20028;-76
2021/12/17 02:49:04;;;;;;;5.20;4.80;;;;;;;11.27;62.02;102778.06;6188992;23;20012;-77
2021/12/17 02:51:29;;;;;;;4.47;4.18;;;;;;;11.27;61.67;102783.53;6138918;23;20087;-78
2021/12/17 02:53:56;;;;;;;7.20;6.72;;;;;;;11.29;62.25;102773.19;6163004;23;20017;-76
2021/12/17 02:56:21;;;;;;;6.43;5.90;;;;;;;11.29;61.69;102770.47;6186366;23;20005;-76
2021/12/17 02:58:48;;;;;;;6.25;5.85;;;;;;;11.30;61.70;102771.28;6189135;23;20016;-76
2021/12/17 03:01:14;;;;;;;5.38;5.07;;;;;;;11.29;61.85;102767.72;6216019;23;20005;-75
2021/12/17 03:03:43;;;;;;;4.97;4.50;;;;;;;11.27;61.66;102766.25;6189893;23;20630;-75
2021/12/17 03:06:09;;;;;;;4.07;3.78;;;;;;;11.28;61.89;102763.28;6214659;23;20331;-76
2021/12/17 03:08:35;;;;;;;5.70;5.40;;;;;;;11.29;61.65;102770.47;6190509;23;20040;-75
2021/12/17 03:11:01;;;;;;;4.47;4.28;;;;;;;11.27;61.86;102771.72;6216656;23;20007;-75
2021/12/17 03:13:29;;;;;;;6.90;6.32;;;;;;;11.26;61.70;102770.88;6189538;23;20002;-75
2021/12/17 03:24:04;;;;;;;4.45;4.25;;;;;;;11.28;61.78;102757.81;6194388;23;20084;-74
2021/12/17 03:26:30;;;;;;;3.28;3.15;;;;;;;11.27;61.80;102766.25;6165636;23;20013;-75
2021/12/17 03:29:02;;;;;;;3.30;3.13;;;;;;;11.29;61.29;102758.66;6189291;23;20436;-75
2021/12/17 03:31:28;;;;;;;4.25;4.05;;;;;;;11.26;61.58;102759.09;6216928;23;20012;-74
2021/12/17 03:34:01;;;;;;;4.30;4.10;;;;;;;11.25;61.96;102758.25;6218892;23;20162;-75
2021/12/17 03:36:28;;;;;;;4.30;4.10;;;;;;;11.24;61.50;102748.34;6218387;23;20005;-75
2021/12/17 03:38:53;;;;;;;5.72;5.20;;;;;;;11.23;61.70;102748.53;6193197;23;20008;-74
2021/12/17 03:41:35;;;;;;;5.70;5.30;;;;;;;11.23;61.53;102760.38;6217859;23;20305;-75
2021/12/17 03:44:00;;;;;;;9.82;6.15;;;;;;;11.22;61.89;102747.72;6217352;23;20001;-75
2021/12/17 03:46:26;;;;;;;5.05;4.85;;;;;;;11.25;61.63;102752.75;6191529;23;20017;-75
2021/12/17 03:48:51;;;;;;;5.30;5.07;;;;;;;11.23;61.58;102745.81;6192684;23;20011;-75
2021/12/17 03:51:19;;;;;;;4.57;4.32;;;;;;;11.25;61.72;102751.94;6215602;23;20004;-75
2021/12/17 03:53:51;;;;;;;4.38;4.18;;;;;;;11.25;61.57;102751.94;6191513;23;20000;-75
2021/12/17 03:56:18;;;;;;;5.20;4.80;;;;;;;11.22;61.90;102750.44;6190506;23;20386;-75
2021/12/17 03:58:45;;;;;;;5.00;4.70;;;;;;;11.23;62.01;102749.41;6217970;23;20004;-73
2021/12/17 04:01:10;;;;;;;4.57;4.18;;;;;;;11.22;62.08;102753.19;6215626;23;20090;-74
2021/12/17 04:03:37;;;;;;;4.78;4.55;;;;;;;11.21;61.59;102746.03;6190904;23;20404;-74
2021/12/17 04:06:03;;;;;;;4.75;4.55;;;;;;;11.19;61.86;102739.94;6191416;23;20066;-74
2021/12/17 04:08:29;;;;;;;4.07;3.85;;;;;;;11.19;61.64;102748.16;6163521;23;20011;-75
2021/12/17 04:11:03;;;;;;;3.83;3.63;;;;;;;11.16;61.71;102748.56;6217832;23;20000;-77
2021/12/17 04:13:33;;;;;;;2.67;2.58;;;;;;;11.17;61.75;102744.78;6188350;23;20008;-77
2021/12/17 04:16:03;;;;;;;4.40;4.07;;;;;;;11.16;61.58;102743.09;6190420;23;20012;-73
2021/12/17 04:18:29;;;;;;;3.35;3.25;;;;;;;11.16;61.86;102748.56;6214671;23;20571;-75
2021/12/17 04:20:55;;;;;;;2.90;2.70;;;;;;;11.15;62.06;102757.84;6218582;23;20000;-74
2021/12/17 04:23:21;;;;;;;4.32;4.03;;;;;;;11.17;62.08;102755.75;6217162;23;20078;-73
2021/12/17 04:25:49;;;;;;;4.75;4.45;;;;;;;11.17;61.66;102761.22;6188764;23;20036;-76
2021/12/17 04:28:15;;;;;;;4.15;3.95;;;;;;;11.17;62.24;102766.69;6190852;23;20016;-76
2021/12/17 04:30:41;;;;;;;4.10;3.80;;;;;;;11.16;62.03;102760.38;6215240;23;20016;-75
2021/12/17 04:33:07;;;;;;;3.60;3.40;;;;;;;11.18;61.68;102760.16;6190208;23;20001;-76
2021/12/17 04:35:33;;;;;;;3.60;3.42;;;;;;;11.16;62.02;102765.84;6217757;23;20139;-75
2021/12/17 04:37:59;;;;;;;4.07;3.88;;;;;;;11.17;61.60;102769.44;6218010;23;20134;-75
2021/12/17 04:40:26;;;;;;;3.70;3.55;;;;;;;11.14;62.06;102758.88;6215827;23;20109;-76
2021/12/17 04:44:00;;;;;;;4.00;3.80;;;;;;;11.17;61.73;102766.69;6191587;23;20059;-76
2021/12/17 04:46:02;;;;;;;3.33;3.13;;;;;;;11.16;62.14;102756.78;6180502;23;20019;-75
2021/12/17 04:59:25;;;;;;;2.67;2.58;;;;;;;11.10;62.08;102743.97;6215306;23;20096;-76
2021/12/17 05:01:53;;;;;;;4.60;4.20;;;;;;;11.12;62.06;102750.06;6163698;23;20032;-75
2021/12/17 05:04:19;;;;;;;4.07;3.88;;;;;;;11.12;61.65;102752.78;6187853;23;20636;-76
2021/12/17 05:06:45;;;;;;;5.03;2.90;;;;;;;11.10;62.06;102761.22;6216672;23;20427;-74
2021/12/17 05:09:24;;;;;;;3.50;3.30;;;;;;;11.07;61.86;102745.22;6185811;23;20016;-76
2021/12/17 05:19:56;;;;;;;2.35;2.25;;;;;;;11.05;62.18;102749.22;6214595;23;20016;-77
2021/12/17 05:22:23;;;;;;;2.15;2.05;;;;;;;11.04;61.99;102739.31;6191343;23;20004;-76
2021/12/17 05:24:49;;;;;;;2.38;2.28;;;;;;;11.00;61.96;102737.00;6190779;23;20009;-76
2021/12/17 05:27:14;;;;;;;2.25;2.15;;;;;;;11.00;61.99;102737.00;6166723;23;20032;-76
2021/12/17 05:29:40;;;;;;;2.33;2.20;;;;;;;11.03;62.16;102738.47;6217369;23;20035;-77
2021/12/17 05:32:06;;;;;;;2.50;2.40;;;;;;;11.01;62.24;102735.13;6188621;23;20438;-77
2021/12/17 05:34:31;;;;;;;3.35;3.25;;;;;;;11.03;62.51;102738.47;6190266;23;20004;-76
2021/12/17 05:36:57;;;;;;;4.05;3.85;;;;;;;11.02;62.01;102735.97;6164402;23;20005;-76
2021/12/17 05:39:22;;;;;;;4.00;3.75;;;;;;;11.03;61.74;102740.38;6167951;23;20379;-77
2021/12/17 05:41:48;;;;;;;4.40;4.20;;;;;;;11.03;62.05;102743.13;6187456;23;20018;-73
2021/12/17 05:44:18;;;;;;;4.22;4.03;;;;;;;11.00;62.08;102741.66;6214720;23;20004;-73
2021/12/17 05:46:50;;;;;;;4.70;4.22;;;;;;;10.99;61.84;102742.69;6188954;23;20008;-75
2021/12/17 05:49:23;;;;;;;4.35;4.13;;;;;;;11.00;62.15;102750.69;6189383;23;20023;-74
2021/12/17 05:51:52;;;;;;;4.32;4.13;;;;;;;10.99;61.66;102748.16;6186551;23;20039;-74
2021/12/17 05:54:18;;;;;;;3.60;3.42;;;;;;;10.97;61.86;102739.34;6211767;23;20000;-74
2021/12/17 05:56:44;;;;;;;4.60;4.20;;;;;;;10.94;62.30;102737.84;6188674;23;20049;-75
2021/12/17 05:59:11;;;;;;;3.78;3.63;;;;;;;10.97;62.12;102745.63;6188906;23;20062;-74
2021/12/17 06:01:36;;;;;;;3.83;3.63;;;;;;;10.98;62.23;102741.84;6214964;23;20483;-74
2021/12/17 06:04:03;;;;;;;4.13;3.92;;;;;;;10.98;62.13;102741.00;6188913;23;20040;-75
2021/12/17 06:06:34;;;;;;;3.92;3.72;;;;;;;10.97;62.24;102745.63;6216535;23;20000;-76
2021/12/17 06:09:05;;;;;;;3.88;3.67;;;;;;;10.96;61.89;102743.94;6190452;23;20004;-74
2021/12/17 06:11:32;;;;;;;3.85;3.65;;;;;;;10.96;62.36;102743.13;6213832;23;20005;-74
2021/12/17 06:13:57;;;;;;;3.33;3.13;;;;;;;10.94;61.79;102739.75;6190708;23;20104;-74
2021/12/17 06:16:23;;;;;;;6.60;4.05;;;;;;;10.93;62.33;102744.38;6215431;23;20032;-73
2021/12/17 06:18:48;;;;;;;4.07;3.78;;;;;;;10.90;61.91;102739.31;6216546;23;20273;-73
2021/12/17 06:21:14;;;;;;;3.08;2.88;;;;;;;10.90;62.47;102744.81;6187851;23;20082;-75
2021/12/17 06:23:40;;;;;;;6.00;3.83;;;;;;;10.87;62.29;102736.19;6215613;23;20371;-73
2021/12/17 06:26:06;;;;;;;4.18;3.88;;;;;;;10.88;62.49;102744.19;6216439;23;20044;-74
2021/12/17 06:28:32;;;;;;;3.90;3.60;;;;;;;10.89;62.23;102742.28;6219712;23;20059;-74
2021/12/17 06:30:57;;;;;;;4.85;4.50;;;;;;;10.85;62.37;102741.88;6215653;23;20009;-75
2021/12/17 06:33:22;;;;;;;3.60;3.40;;;;;;;10.84;62.41;102742.91;6214783;23;20084;-73
2021/12/17 06:35:48;;;;;;;3.33;3.13;;;;;;;10.82;62.18;102739.56;6213759;23;20008;-74
2021/12/17 06:38:14;;;;;;;3.20;3.10;;;;;;;10.81;62.39;102746.06;6211722;23;20005;-74
2021/12/17 06:40:40;;;;;;;3.75;3.40;;;;;;;10.79;62.61;102748.16;6212423;23;20027;-74
2021/12/17 06:43:05;;;;;;;3.15;3.05;;;;;;;10.80;62.20;102749.84;6214736;23;20005;-75
2021/12/17 06:48:15;;;;;;;4.50;4.10;;;;;;;10.79;62.43;102759.13;6225722;23;20517;-73
2021/12/17 07:07:44;;;;;;;4.00;3.80;;;;;;;10.82;62.61;102750.50;6199432;23;20027;-75
2021/12/17 07:10:05;;;;;;;3.75;3.45;;;;;;;10.69;61.96;102728.59;6214026;23;20012;-74
2021/12/17 07:18:03;;;;;;;2.63;2.53;;;;;;;10.81;62.50;102746.06;6215086;23;20016;-75
2021/12/17 07:24:25;;;;;;;3.25;3.08;;;;;;;10.82;62.43;102745.03;6192276;23;20016;-75
2021/12/17 07:30:02;;;;;;;4.57;4.28;;;;;;;10.89;62.08;102751.31;6212544;23;20171;-76
2021/12/17 07:34:02;;;;;;;5.05;4.65;;;;;;;10.92;62.10;102753.66;6215811;23;20013;-74
2021/12/17 07:36:38;;;;;;;4.85;4.55;;;;;;;10.95;61.75;102757.84;6190470;23;20013;-74
2021/12/17 07:39:08;;;;;;;3.67;3.28;;;;;;;10.94;61.76;102751.53;6169433;23;20009;-76
2021/12/17 07:41:34;;;;;;;3.88;3.67;;;;;;;10.92;61.87;102753.66;6188388;23;20327;-76
2021/12/17 07:44:01;;;;;;;4.15;3.92;;;;;;;11.03;61.35;102765.03;6214283;23;20004;-76
2021/12/17 07:46:36;;;;;;;3.75;3.58;;;;;;;11.01;61.40;102762.50;6188134;23;20020;-73
2021/12/17 07:49:01;;;;;;;3.05;2.90;;;;;;;11.03;61.65;102759.56;6185371;23;20009;-74
2021/12/17 07:51:54;;;;;;;2.78;2.67;;;;;;;10.94;62.02;102751.53;6215233;23;20012;-78
2021/12/17 07:54:27;;;;;;;3.78;3.60;;;;;;;10.95;62.05;102766.06;6215169;23;20000;-77
2021/12/17 07:57:03;;;;;;;;;;;;;;;;;;;;;
2021/12/17 07:59:51;;;;;;;4.47;4.18;;;;;;;10.87;62.24;102766.28;6215644;23;20084;-76
2021/12/17 08:02:32;;;;;;;4.00;3.80;;;;;;;10.86;62.09;102776.38;6218435;23;20020;-83
2021/12/17 08:05:37;;;;;;;;;;;;;;;;;;;;;
2021/12/17 08:08:21;;;;;;;3.83;3.63;;;;;;;10.72;62.01;102752.78;6220529;23;20032;-80
2021/12/17 08:10:47;;;;;;;3.08;2.88;;;;;;;10.70;61.86;102761.22;6220521;23;20000;-78
2021/12/17 08:14:10;;;;;;;3.55;3.35;;;;;;;10.83;62.20;102771.34;6195027;23;20096;-84
2021/12/17 08:16:47;;;;;;;2.97;2.83;;;;;;;10.68;61.74;102760.59;6172294;23;20015;-80
2021/12/17 08:25:09;;;;;;;2.22;2.05;;;;;;;10.79;62.73;102776.41;6219537;23;20082;-78
2021/12/17 08:28:03;;;;;;;2.30;2.20;;;;;;;10.76;62.49;102770.47;6152801;23;20024;-80
2021/12/17 08:30:38;;;;;;;3.33;3.13;;;;;;;10.71;61.99;102773.03;6192222;23;20016;-78
2021/12/17 08:33:06;;;;;;;3.35;3.15;;;;;;;10.76;62.46;102775.97;6226053;23;20001;-79
2021/12/17 08:35:35;;;;;;;4.18;2.72;;;;;;;10.80;62.67;102782.69;6203061;23;20015;-80
2021/12/17 08:38:07;;;;;;;3.95;2.83;;;;;;;10.69;62.19;102772.38;6174839;23;20012;-81
2021/12/17 08:40:44;;;;;;;2.85;2.65;;;;;;;10.74;62.29;102783.56;6201604;23;20061;-81
2021/12/17 08:43:12;;;;;;;6.15;2.25;;;;;;;10.76;61.99;102781.44;6220639;23;19997;-80
2021/12/17 08:45:42;;;;;;;3.75;3.55;;;;;;;10.82;62.31;102791.56;6168666;23;20027;-76
2021/12/17 08:48:08;;;;;;;2.80;2.60;;;;;;;10.80;62.32;102790.91;6166995;23;20031;-80
2021/12/17 08:50:37;;;;;;;3.75;3.55;;;;;;;10.73;62.44;102769.03;6219371;23;20004;-78
2021/12/17 08:53:12;;;;;;;3.10;2.90;;;;;;;10.72;62.44;102767.34;6215174;23;20080;-81
2021/12/17 08:55:38;;;;;;;3.45;3.25;;;;;;;10.84;61.88;102797.66;6217093;23;20060;-78
2021/12/17 08:58:22;;;;;;;;;;;;;;;;;;;;;
2021/12/17 09:00:55;;;;;;;4.10;3.90;;;;;;;10.76;61.55;102781.44;6217655;23;20071;-80
2021/12/17 09:03:54;;;;;;;;;;;;;;;;;;;;;
2021/12/17 09:06:30;;;;;;;3.45;3.15;;;;;;;10.86;61.78;102797.44;6219813;23;20051;-77
2021/12/17 09:08:57;;;;;;;3.22;2.90;;;;;;;10.84;61.69;102781.25;6192068;23;20008;-76
2021/12/17 09:11:24;;;;;;;5.18;3.78;;;;;;;10.81;61.94;102784.41;6218354;23;20001;-78
2021/12/17 09:14:12;;;;;;;4.40;3.70;;;;;;;10.96;62.16;102804.19;6217298;23;20054;-78
2021/12/17 09:16:38;;;;;;;4.85;4.45;;;;;;;11.03;61.80;102820.63;6193000;23;20324;-80
2021/12/17 09:19:07;;;;;;;6.20;5.60;;;;;;;10.98;61.76;102807.56;6193234;23;20036;-79
2021/12/17 09:21:33;;;;;;;7.90;5.07;;;;;;;10.95;61.43;102808.00;6169637;23;20028;-80
2021/12/17 09:23:59;;;;;;;5.50;3.50;;;;;;;11.00;61.87;102801.88;6216978;23;20474;-81
2021/12/17 09:26:25;;;;;;;2.65;2.45;;;;;;;10.97;61.29;102794.09;6192005;23;20093;-80
2021/12/17 09:28:53;;;;;;;2.28;2.17;;;;;;;11.12;61.30;102807.56;6192965;23;20066;-79
2021/12/17 09:31:19;;;;;;;2.95;2.67;;;;;;;11.08;61.26;102795.34;6190479;23;20402;-78
2021/12/17 09:33:50;;;;;;;3.45;3.25;;;;;;;11.16;61.40;102819.78;6186332;23;19996;-81
2021/12/17 09:36:22;;;;;;;3.38;3.17;;;;;;;11.05;61.25;102801.25;6187613;23;20005;-77
2021/12/17 09:38:52;;;;;;;4.22;3.92;;;;;;;11.16;60.94;102819.78;6215446;23;20001;-77
2021/12/17 09:41:20;;;;;;;6.47;4.75;;;;;;;11.20;61.16;102837.47;6193434;23;20009;-76
2021/12/17 09:43:47;;;;;;;5.30;4.80;;;;;;;11.13;60.88;102809.25;6190598;23;20814;-76
2021/12/17 09:46:16;;;;;;;5.30;4.32;;;;;;;11.09;60.80;102802.50;6164957;23;20012;-76
2021/12/17 09:48:45;;;;;;;4.68;4.30;;;;;;;11.15;60.86;102818.09;6191837;23;20004;-76
2021/12/17 09:51:11;;;;;;;4.18;3.38;;;;;;;11.17;60.83;102821.47;6191132;23;20079;-77
2021/12/17 09:53:37;;;;;;;2.92;2.80;;;;;;;11.18;60.20;102820.41;6193903;23;20001;-77
2021/12/17 09:56:11;;;;;;;3.47;3.25;;;;;;;11.24;60.60;102832.41;6220136;23;20011;-77
2021/12/17 09:58:46;;;;;;;3.05;2.85;;;;;;;11.24;60.83;102827.75;6224262;23;19997;-77
2021/12/17 10:01:11;;;;;;;2.77;2.67;;;;;;;11.29;60.25;102829.88;6196536;23;20008;-76
2021/12/17 10:04:20;;;;;;;6.07;2.40;;;;;;;11.42;60.12;102834.47;6196359;23;20009;-78
2021/12/17 10:06:49;;;;;;;2.72;2.55;;;;;;;11.32;59.88;102818.50;6191033;23;20059;-77
2021/12/17 10:09:15;;;;;;;2.72;2.55;;;;;;;11.31;59.81;102817.63;6219029;23;20013;-76
2021/12/17 10:12:02;;;;;;;2.40;2.20;;;;;;;11.52;60.48;102835.75;6189976;23;20008;-78
2021/12/17 10:14:28;;;;;;;2.90;2.67;;;;;;;11.44;59.97;102815.94;6187280;23;20001;-75
2021/12/17 10:17:11;;;;;;;2.50;2.40;;;;;;;11.55;60.00;102819.94;6188736;23;20428;-78
2021/12/17 10:19:53;;;;;;;2.50;2.30;;;;;;;11.65;59.52;102828.53;6188694;23;20055;-76
2021/12/17 10:22:20;;;;;;;2.08;1.98;;;;;;;11.70;60.23;102826.84;6191036;23;20016;-77
2021/12/17 10:24:59;;;;;;;3.20;3.00;;;;;;;11.75;60.06;102830.84;6193455;23;20068;-78
2021/12/17 10:27:31;;;;;;;7.38;2.40;;;;;;;11.67;59.55;102819.06;6189089;23;20016;-75
2021/12/17 10:30:25;;;;;;;3.05;2.85;;;;;;;11.72;59.79;102817.56;6216601;23;20454;-76
2021/12/17 10:32:53;;;;;;;2.58;2.13;;;;;;;11.73;59.47;102825.59;6169558;23;20005;-77
2021/12/17 10:35:30;;;;;;;2.22;2.13;;;;;;;11.72;59.54;102817.56;6189440;23;20399;-78
2021/12/17 10:38:01;;;;;;;3.92;2.55;;;;;;;11.71;58.99;102814.00;6189441;23;20434;-78
2021/12/17 10:41:00;;;;;;;5.35;1.90;;;;;;;11.89;59.78;102829.75;6191635;23;20064;-78
2021/12/17 10:43:38;;;;;;;4.53;1.90;;;;;;;11.85;59.58;102821.09;6189590;23;20033;-78
2021/12/17 10:46:23;;;;;;;3.03;2.83;;;;;;;11.91;59.21;102829.53;6218796;23;20020;-78
2021/12/17 10:49:01;;;;;;;2.15;2.05;;;;;;;11.98;59.84;102827.66;6224005;23;20080;-78
2021/12/17 10:51:47;;;;;;;3.13;2.58;;;;;;;11.97;58.94;102826.81;6193712;23;20016;-79
2021/12/17 10:54:42;;;;;;;2.13;2.03;;;;;;;12.08;59.65;102827.19;6215251;23;20005;-79
2021/12/17 10:57:08;;;;;;;2.20;2.03;;;;;;;11.98;58.64;102814.75;6165406;23;20008;-79
2021/12/17 10:59:36;;;;;;;1.88;1.77;;;;;;;12.10;59.05;102819.56;6194644;23;20015;-79
2021/12/17 11:02:16;;;;;;;2.00;1.85;;;;;;;12.09;58.72;102806.91;6170554;23;20008;-79
2021/12/17 11:04:46;;;;;;;2.08;1.92;;;;;;;12.04;59.00;102796.59;6213466;23;20004;-77
2021/12/17 11:07:17;;;;;;;2.15;1.95;;;;;;;12.15;58.80;102795.06;6220154;23;20008;-80
2021/12/17 11:09:45;;;;;;;1.90;1.80;;;;;;;12.30;59.26;102812.09;6219728;23;20011;-78
2021/12/17 11:12:14;;;;;;;2.53;2.38;;;;;;;12.30;57.95;102808.50;6194265;23;20001;-78
2021/12/17 11:14:49;;;;;;;2.22;2.10;;;;;;;12.24;58.08;102788.28;6218948;23;20012;-79
2021/12/17 11:17:23;;;;;;;1.52;1.42;;;;;;;12.29;58.31;102785.69;6220952;23;20005;-78
2021/12/17 11:19:54;;;;;;;1.85;1.75;;;;;;;12.37;58.38;102793.69;6194923;23;20020;-79
2021/12/17 11:22:29;;;;;;;3.00;1.70;;;;;;;12.43;57.86;102802.13;6191256;23;20001;-78
2021/12/17 11:25:00;;;;;;;5.88;1.67;;;;;;;12.41;57.80;102799.56;6220166;23;20016;-81
2021/12/17 11:27:26;;;;;;;1.75;1.65;;;;;;;12.31;57.78;102783.59;6188505;23;20012;-81
2021/12/17 11:29:52;;;;;;;2.20;2.10;;;;;;;12.34;57.24;102796.03;6192764;23;20023;-80
2021/12/17 11:32:19;;;;;;;3.72;3.42;;;;;;;12.32;57.95;102788.00;6166347;23;20009;-78
2021/12/17 11:34:45;;;;;;;3.90;2.63;;;;;;;12.28;58.03;102775.81;6190157;23;20629;-80
2021/12/17 11:37:11;;;;;;;2.72;2.53;;;;;;;12.39;57.97;102796.22;6170289;23;20012;-80
2021/12/17 11:39:45;;;;;;;4.80;2.38;;;;;;;12.39;58.07;102786.06;6219373;23;20012;-80
2021/12/17 11:42:30;;;;;;;5.78;2.30;;;;;;;12.36;57.76;102786.50;6219339;23;20000;-79
2021/12/17 11:47:48;;;;;;;4.35;2.92;;;;;;;12.25;57.57;102773.50;6219762;23;20442;-77
2021/12/17 11:50:28;;;;;;;2.75;2.55;;;;;;;12.31;57.67;102783.59;6167842;23;20020;-76
2021/12/17 11:53:01;;;;;;;2.45;2.25;;;;;;;12.29;57.40;102774.72;6192850;23;20450;-78
2021/12/17 11:55:46;;;;;;;;;;;;;;;;;;;;;
2021/12/17 11:58:56;;;;;;;;;;;;;;;;;;;;;
2021/12/17 12:02:01;;;;;;;;;;;;;;;;;;;;;
2021/12/17 12:04:54;;;;;;;1.77;1.67;;;;;;;12.36;57.15;102781.03;6220344;23;20032;-80
2021/12/17 12:07:30;;;;;;;2.80;2.30;;;;;;;12.35;57.00;102773.88;6216921;23;20323;-80
2021/12/17 12:10:12;;;;;;;1.75;1.65;;;;;;;12.37;56.99;102773.66;6194567;23;20008;-81
2021/12/17 12:12:38;;;;;;;6.00;1.98;;;;;;;12.32;57.43;102774.28;6195124;23;20009;-78
2021/12/17 12:15:27;;;;;;;2.75;1.92;;;;;;;12.34;58.04;102772.19;6195302;23;20008;-79
2021/12/17 12:18:07;;;;;;;2.40;2.30;;;;;;;12.35;58.03;102778.50;6221771;23;20011;-80
2021/12/17 12:20:48;;;;;;;3.40;2.40;;;;;;;12.36;58.23;102770.03;6194790;23;20051;-80
2021/12/17 12:23:36;;;;;;;3.28;2.05;;;;;;;12.35;58.18;102779.38;6220824;23;20009;-80
2021/12/17 12:26:04;;;;;;;2.00;1.90;;;;;;;12.35;57.52;102771.13;6195748;23;20024;-81
2021/12/17 12:29:17;;;;;;;2.90;2.70;;;;;;;12.37;58.36;102771.75;6192481;23;20012;-80
2021/12/17 12:31:47;;;;;;;4.10;2.72;;;;;;;12.31;57.53;102755.31;6211004;23;20012;-82
2021/12/17 12:34:29;;;;;;;2.72;2.53;;;;;;;12.32;57.76;102757.81;6220276;23;20007;-80
2021/12/17 12:37:09;;;;;;;2.70;2.60;;;;;;;12.30;58.43;102754.47;6194486;23;20004;-82
2021/12/17 12:39:38;;;;;;;3.95;2.30;;;;;;;12.22;57.90;102743.75;6221748;23;20000;-80
2021/12/17 12:42:06;;;;;;;2.17;2.08;;;;;;;12.23;58.50;102743.53;6220779;23;20005;-81
2021/12/17 12:45:07;;;;;;;2.95;2.75;;;;;;;12.28;58.08;102750.25;6193495;23;20445;-79
2021/12/17 12:47:38;;;;;;;2.63;2.42;;;;;;;12.18;58.31;102734.31;6193644;23;20004;-80
2021/12/17 12:50:06;;;;;;;3.25;2.83;;;;;;;12.17;58.65;102738.09;6195366;23;20000;-80
2021/12/17 12:52:31;;;;;;;4.25;3.95;;;;;;;12.18;58.74;102740.63;6194125;23;20023;-80
2021/12/17 12:55:11;;;;;;;3.92;3.63;;;;;;;12.13;58.28;102736.84;6193073;23;20392;-80
2021/12/17 12:57:43;;;;;;;3.35;3.15;;;;;;;12.13;58.78;102734.13;6193394;23;20056;-80
2021/12/17 13:00:09;;;;;;;3.20;2.97;;;;;;;12.22;58.86;102739.13;6193413;23;20000;-80
2021/12/17 13:02:35;;;;;;;4.03;3.75;;;;;;;12.20;58.89;102726.69;6194427;23;19996;-80
2021/12/17 13:05:08;;;;;;;4.13;3.83;;;;;;;12.18;58.65;102717.84;6219721;23;20005;-80
2021/12/17 13:07:48;;;;;;;6.28;3.45;;;;;;;12.14;58.54;102716.59;6145473;23;20009;-78
2021/12/17 13:10:39;;;;;;;3.08;2.88;;;;;;;12.30;58.65;102721.56;6217127;23;19996;-77
2021/12/17 13:14:27;;;;;;;;;;;;;;;;;;;;;
2021/12/17 15:59:54;;;;;;;;;;;;;;;;;;;;;
2021/12/17 16:03:37;;;;;;;;;;;;;;;;;;;;;
2021/12/17 16:23:50;;;;;;;10.27;8.48;;;;;;;9.71;65.37;102664.25;5929897;23;20052;-79
2021/12/17 16:27:09;;;;;;;10.73;8.38;;;;;;;9.83;65.41;102694.56;5997997;23;20011;-81
2021/12/17 16:29:34;;;;;;;9.38;8.50;;;;;;;9.65;65.85;102660.47;5994593;23;20035;-77
2021/12/17 16:33:08;;;;;;;;;;;;;;;;;;;;;
2021/12/17 17:17:53;;;;;;;11.20;10.18;;;;;;;9.44;67.61;102691.47;5849226;24;20063;-80
2021/12/17 17:21:35;;;;;;;;;;;;;;;;;;;;;
2021/12/17 17:24:49;;;;;;;12.07;10.88;;;;;;;9.12;67.95;102657.50;6015839;23;20405;-81
2021/12/17 19:41:27;;;;;;;15.02;11.50;;;;;;;9.36;71.42;102617.91;6192065;23;20013;-76
2021/12/17 19:52:30;;;;;;;;;;;;;;;;;;;;;
2021/12/17 19:59:08;;;;;;;;;;;;;;;;;;;;;
2021/12/17 20:02:00;;;;;;;9.90;9.00;;;;;;;9.48;72.04;102635.41;5878530;24;20037;-80
2021/12/17 20:04:29;;;;;;;10.50;9.50;;;;;;;9.35;72.52;102629.91;5875214;24;20044;-77
2021/12/17 20:17:35;;;;;;;9.60;8.55;;;;;;;9.29;72.36;102606.13;5809753;24;20058;-79
2021/12/17 20:21:19;;;;;;;;;;;;;;;;;;;;;
2021/12/17 20:23:20;;;;;;;;;;;;;;;;;;;;;
2021/12/17 20:40:20;;;;;;;15.23;11.57;;;;;;;9.47;72.98;102639.19;6086313;23;20070;-80
2021/12/17 20:42:57;;;;;;;10.65;9.65;;;;;;;9.29;73.25;102606.13;6166117;23;20156;-74
2021/12/17 20:49:51;;;;;;;;;;;;;;;;;;;;;
2021/12/17 20:52:47;;;;;;;9.15;8.55;;;;;;;9.44;73.33;102625.94;6169260;23;20029;-81
2021/12/17 20:55:38;;;;;;;;;;;;;;;;;;;;;
2021/12/17 20:58:08;;;;;;;13.05;11.85;;;;;;;9.49;73.36;102638.97;6235592;23;20027;-81
2021/12/17 21:00:40;;;;;;;10.38;9.57;;;;;;;9.52;73.60;102644.88;6256814;23;20030;-83
2021/12/17 21:03:24;;;;;;;10.57;9.70;;;;;;;9.47;73.40;102641.91;6253623;23;19996;-78
2021/12/17 21:09:03;;;;;;;18.80;14.57;;;;;;;9.59;73.78;102644.88;6114478;23;20018;-84
2021/12/17 21:12:25;;;;;;;13.38;11.98;;;;;;;9.40;73.73;102620.06;6222611;23;20236;-78
2021/12/17 21:15:33;;;;;;;;;;;;;;;;;;;;;
2021/12/17 21:22:03;;;;;;;13.25;11.95;;;;;;;9.56;73.36;102637.09;6003854;23;20012;-80
2021/12/17 21:32:31;;;;;;;;;;;;;;;;;;;;;
2021/12/17 21:36:07;;;;;;;;;;;;;;;;;;;;;
2021/12/17 21:43:56;;;;;;;;;;;;;;;;;;;;;
2021/12/17 21:50:24;;;;;;;;;;;;;;;;;;;;;
2021/12/17 21:53:59;;;;;;;;;;;;;;;;;;;;;
2021/12/17 21:56:49;;;;;;;7.43;7.03;;;;;;;9.65;73.99;102603.13;6069664;23;20042;-76
2021/12/17 22:00:40;;;;;;;7.22;6.72;;;;;;;9.66;73.58;102609.41;6048670;23;20010;-75
2021/12/17 22:02:53;;;;;;;6.97;6.68;;;;;;;9.56;74.10;102597.00;5978036;24;20148;-76
2021/12/17 22:09:08;;;;;;;6.95;6.47;;;;;;;9.54;73.78;102592.78;5939779;24;20008;-76